createdAt,value
2019-05-30T00:01:14.192Z,60.57
2019-05-30T00:03:58.848Z,53.43
2019-05-30T00:06:43.711Z,59.80
2019-05-30T00:09:22.403Z,60.37
2019-05-30T00:12:02.934Z,63.78
2019-05-30T00:14:45.109Z,51.63
2019-05-30T00:17:25.902Z,56.10
2019-05-30T00:20:09.580Z,51.50
2019-05-30T00:22:54.622Z,52.67
2019-05-30T00:25:37.306Z,66.77
2019-05-30T00:28:20.585Z,81.90
2019-05-30T00:31:04.568Z,215.90
2019-05-30T00:33:46.847Z,96.87
2019-05-30T00:36:30.585Z,63.00
2019-05-30T00:39:13.216Z,66.17
2019-05-30T00:41:54.142Z,66.20
2019-05-30T00:44:36.490Z,88.25
2019-05-30T00:47:18.281Z,73.50
2019-05-30T00:49:58.467Z,60.40
2019-05-30T00:52:41.839Z,67.07
2019-05-30T00:55:20.312Z,56.53
2019-05-30T00:58:02.832Z,65.30
2019-05-30T01:00:44.396Z,58.10
2019-05-30T01:03:27.747Z,62.03
2019-05-30T01:06:07.153Z,82.70
2019-05-30T01:08:50.187Z,69.17
2019-05-30T01:11:33.908Z,60.00
2019-05-30T01:14:14.100Z,69.00
2019-05-30T01:16:57.111Z,60.03
2019-05-30T01:19:36.672Z,60.60
2019-05-30T01:22:19.476Z,75.32
2019-05-30T01:25:01.627Z,71.30
2019-05-30T01:27:42.343Z,56.70
2019-05-30T01:30:22.087Z,61.53
2019-05-30T01:33:03.830Z,64.07
2019-05-30T01:35:45.492Z,78.70
2019-05-30T01:38:27.582Z,63.47
2019-05-30T01:41:08.367Z,54.07
2019-05-30T01:43:49.110Z,61.20
2019-05-30T01:46:27.357Z,48.80
2019-05-30T01:49:06.793Z,60.77
2019-05-30T01:51:49.386Z,52.70
2019-05-30T01:54:32.428Z,59.42
2019-05-30T01:57:13.296Z,62.60
2019-05-30T01:59:56.488Z,70.77
2019-05-30T02:02:35.368Z,62.63
2019-05-30T02:05:16.932Z,64.63
2019-05-30T02:07:56.832Z,68.63
2019-05-30T02:10:39.853Z,74.33
2019-05-30T02:13:18.843Z,68.00
2019-05-30T02:16:05.827Z,64.67
2019-05-30T02:18:47.595Z,59.67
2019-05-30T02:21:29.835Z,58.00
2019-05-30T02:24:12.163Z,58.03
2019-05-30T02:26:57.246Z,48.70
2019-05-30T02:29:37.432Z,56.55
2019-05-30T02:32:16.740Z,50.13
2019-05-30T02:34:58.423Z,46.03
2019-05-30T02:37:38.145Z,45.13
2019-05-30T02:40:19.098Z,50.07
2019-05-30T02:42:58.983Z,93.17
2019-05-30T02:45:41.607Z,70.97
2019-05-30T02:48:26.601Z,62.33
2019-05-30T02:51:10.850Z,74.03
2019-05-30T02:53:52.732Z,64.70
2019-05-30T02:56:35.305Z,55.37
2019-05-30T02:59:16.531Z,58.03
2019-05-30T03:02:01.614Z,49.27
2019-05-30T03:04:44.622Z,54.97
2019-05-30T03:07:28.842Z,56.15
2019-05-30T03:10:11.607Z,55.57
2019-05-30T03:12:50.767Z,44.37
2019-05-30T03:15:30.415Z,64.80
2019-05-30T03:18:14.957Z,59.13
2019-05-30T03:20:57.420Z,58.83
2019-05-30T03:23:42.255Z,49.00
2019-05-30T03:26:24.681Z,45.37
2019-05-30T03:29:09.144Z,69.63
2019-05-30T03:31:54.056Z,59.20
2019-05-30T03:34:38.780Z,54.30
2019-05-30T03:37:28.559Z,47.97
2019-05-30T03:40:03.597Z,53.97
2019-05-30T03:42:46.341Z,55.28
2019-05-30T03:45:32.211Z,64.37
2019-05-30T03:48:15.895Z,55.83
2019-05-30T03:50:59.479Z,63.00
2019-05-30T03:53:42.685Z,57.20
2019-05-30T03:56:28.537Z,53.20
2019-05-30T03:59:39.048Z,70.23
2019-05-30T04:02:56.264Z,67.87
2019-05-30T04:05:19.314Z,77.70
2019-05-30T04:08:00.923Z,58.23
2019-05-30T04:10:44.461Z,85.95
2019-05-30T04:13:56.661Z,91.03
2019-05-30T04:16:38.111Z,88.20
2019-05-30T04:19:25.310Z,87.97
2019-05-30T04:22:07.343Z,94.17
2019-05-30T04:24:47.204Z,102.33
2019-05-30T04:27:35.613Z,77.63
2019-05-30T04:30:14.495Z,81.63
2019-05-30T04:33:16.777Z,46.03
2019-05-30T04:35:51.616Z,70.27
2019-05-30T04:38:33.277Z,64.63
2019-05-30T04:41:15.892Z,79.13
2019-05-30T04:43:58.280Z,104.85
2019-05-30T04:46:40.813Z,128.40
2019-05-30T04:49:25.569Z,186.53
2019-05-30T04:52:10.331Z,141.03
2019-05-30T04:54:50.032Z,182.40
2019-05-30T04:57:30.310Z,198.37
2019-05-30T05:00:17.108Z,84.93
2019-05-30T05:02:59.377Z,157.70
2019-05-30T05:05:43.454Z,70.93
2019-05-30T05:08:26.282Z,56.20
2019-05-30T05:11:16.035Z,65.73
2019-05-30T05:13:59.572Z,51.63
2019-05-30T05:16:42.777Z,52.10
2019-05-30T05:19:26.703Z,43.57
2019-05-30T05:22:07.309Z,50.33
2019-05-30T05:24:50.828Z,85.00
2019-05-30T05:27:32.684Z,78.63
2019-05-30T05:33:16.667Z,69.53
2019-05-30T05:35:58.442Z,67.60
2019-05-30T05:38:44.799Z,70.87
2019-05-30T05:41:28.630Z,72.67
2019-05-30T05:44:10.506Z,128.17
2019-05-30T05:46:52.000Z,71.77
2019-05-30T05:49:39.952Z,66.27
2019-05-30T05:52:26.983Z,81.77
2019-05-30T05:55:06.779Z,58.63
2019-05-30T05:57:50.820Z,55.43
2019-05-30T06:00:33.506Z,51.07
2019-05-30T06:03:18.831Z,43.63
2019-05-30T06:06:05.151Z,60.40
2019-05-30T06:08:47.869Z,61.87
2019-05-30T06:11:29.780Z,53.67
2019-05-30T06:14:09.717Z,74.47
2019-05-30T06:16:55.625Z,73.73
2019-05-30T06:19:46.469Z,64.90
2019-05-30T06:22:24.291Z,182.30
2019-05-30T06:25:08.349Z,119.82
2019-05-30T06:27:51.325Z,72.87
2019-05-30T06:30:34.340Z,56.53
2019-05-30T06:33:15.015Z,43.85
2019-05-30T06:35:58.461Z,42.43
2019-05-30T06:38:45.250Z,36.40
2019-05-30T06:41:29.818Z,30.33
2019-05-30T06:44:10.212Z,42.63
2019-05-30T06:46:51.077Z,43.40
2019-05-30T06:49:32.612Z,42.50
2019-05-30T06:52:17.071Z,50.20
2019-05-30T06:54:57.081Z,35.50
2019-05-30T06:57:42.104Z,33.90
2019-05-30T07:00:21.790Z,36.20
2019-05-30T07:03:05.111Z,46.30
2019-05-30T07:05:46.381Z,36.63
2019-05-30T07:08:39.917Z,40.30
2019-05-30T07:11:18.291Z,45.70
2019-05-30T07:14:02.129Z,44.40
2019-05-30T07:16:43.340Z,37.40
2019-05-30T07:19:25.289Z,33.73
2019-05-30T07:22:05.862Z,28.50
2019-05-30T07:24:47.329Z,28.20
2019-05-30T07:27:32.035Z,33.57
2019-05-30T07:30:16.561Z,31.43
2019-05-30T07:32:57.066Z,24.17
2019-05-30T07:35:37.568Z,29.97
2019-05-30T07:38:19.274Z,25.27
2019-05-30T07:40:59.315Z,27.10
2019-05-30T07:43:42.666Z,24.67
2019-05-30T07:46:23.188Z,23.80
2019-05-30T07:49:04.919Z,27.60
2019-05-30T07:51:45.331Z,27.37
2019-05-30T07:54:24.332Z,29.83
2019-05-30T07:57:04.160Z,25.73
2019-05-30T07:59:43.774Z,31.23
2019-05-30T08:02:24.412Z,32.50
2019-05-30T08:05:22.471Z,38.93
2019-05-30T08:07:47.037Z,35.60
2019-05-30T08:10:25.390Z,30.30
2019-05-30T08:13:09.539Z,30.40
2019-05-30T08:15:50.988Z,60.27
2019-05-30T08:18:31.637Z,46.70
2019-05-30T08:21:13.468Z,43.00
2019-05-30T08:23:53.871Z,35.07
2019-05-30T08:26:36.401Z,27.20
2019-05-30T08:29:19.494Z,28.83
2019-05-30T08:32:01.519Z,30.00
2019-05-30T08:34:44.590Z,35.07
2019-05-30T08:37:26.778Z,34.40
2019-05-30T08:40:06.816Z,32.50
2019-05-30T08:42:46.066Z,39.40
2019-05-30T08:45:25.662Z,30.90
2019-05-30T08:48:06.649Z,29.07
2019-05-30T08:50:47.151Z,27.43
2019-05-30T08:53:26.465Z,24.90
2019-05-30T08:56:09.224Z,41.63
2019-05-30T08:58:50.832Z,26.27
2019-05-30T09:01:31.198Z,35.33
2019-05-30T09:04:59.221Z,26.63
2019-05-30T09:12:27.716Z,32.50
2019-05-30T09:19:11.880Z,40.87
2019-05-30T09:21:55.000Z,46.13
2019-05-30T09:24:35.515Z,36.90
2019-05-30T09:27:16.754Z,46.27
2019-05-30T09:29:59.948Z,40.47
2019-05-30T09:32:43.028Z,43.00
2019-05-30T09:35:22.560Z,46.90
2019-05-30T09:38:03.969Z,39.60
2019-05-30T09:40:43.629Z,40.73
2019-05-30T09:43:25.711Z,36.47
2019-05-30T09:46:08.042Z,41.67
2019-05-30T09:48:51.287Z,42.60
2019-05-30T09:51:36.188Z,44.87
2019-05-30T09:54:18.078Z,59.60
2019-05-30T09:56:59.684Z,54.63
2019-05-30T09:59:48.448Z,52.77
2019-05-30T10:02:33.380Z,47.60
2019-05-30T10:05:14.567Z,44.33
2019-05-30T10:07:56.867Z,56.13
2019-05-30T10:10:37.806Z,58.03
2019-05-30T10:13:23.355Z,56.37
2019-05-30T10:16:07.066Z,60.77
2019-05-30T10:18:50.779Z,55.13
2019-05-30T10:21:33.129Z,55.67
2019-05-30T10:24:17.291Z,56.80
2019-05-30T10:26:59.627Z,48.97
2019-05-30T10:29:45.853Z,54.63
2019-05-30T10:32:29.323Z,56.57
2019-05-30T10:35:11.819Z,53.00
2019-05-30T10:37:52.946Z,50.57
2019-05-30T10:40:37.324Z,56.17
2019-05-30T10:43:15.797Z,60.95
2019-05-30T10:46:00.594Z,70.63
2019-05-30T10:48:50.750Z,83.30
2019-05-30T10:51:31.495Z,85.13
2019-05-30T10:54:11.243Z,83.77
2019-05-30T10:56:56.363Z,359.63
2019-05-30T10:59:38.886Z,213.53
2019-05-30T11:02:24.899Z,171.63
2019-05-30T11:05:03.764Z,140.43
2019-05-30T11:08:05.470Z,129.75
2019-05-30T11:10:46.569Z,91.63
2019-05-30T11:13:32.719Z,109.03
2019-05-30T11:16:17.799Z,133.05
2019-05-30T11:19:01.139Z,121.77
2019-05-30T11:21:43.360Z,85.93
2019-05-30T11:24:27.502Z,90.83
2019-05-30T11:27:17.312Z,78.47
2019-05-30T11:30:01.640Z,84.00
2019-05-30T11:32:48.934Z,84.23
2019-05-30T11:35:28.703Z,81.50
2019-05-30T11:38:08.885Z,91.03
2019-05-30T11:40:51.460Z,94.35
2019-05-30T11:43:34.898Z,114.70
2019-05-30T11:46:18.567Z,121.37
2019-05-30T11:49:06.802Z,210.75
2019-05-30T11:51:51.686Z,182.27
2019-05-30T11:54:32.880Z,671.70
2019-05-30T11:57:20.794Z,524.30
2019-05-30T12:00:04.822Z,260.90
2019-05-30T12:02:48.008Z,220.27
2019-05-30T12:05:31.124Z,321.87
2019-05-30T12:08:13.011Z,309.87
2019-05-30T12:11:01.247Z,271.13
2019-05-30T12:13:41.615Z,209.83
2019-05-30T12:16:23.448Z,179.20
2019-05-30T12:19:09.429Z,145.20
2019-05-30T12:21:55.603Z,125.50
2019-05-30T12:24:37.260Z,153.10
2019-05-30T12:27:20.689Z,134.33
2019-05-30T12:30:10.789Z,130.10
2019-05-30T12:32:54.183Z,141.05
2019-05-30T12:35:37.779Z,143.30
2019-05-30T12:38:20.222Z,144.53
2019-05-30T12:41:06.467Z,136.63
2019-05-30T12:43:47.808Z,115.53
2019-05-30T12:46:27.843Z,121.33
2019-05-30T12:49:11.287Z,110.50
2019-05-30T12:52:18.547Z,116.47
2019-05-30T12:55:10.816Z,113.93
2019-05-30T12:57:52.632Z,125.37
2019-05-30T13:00:33.708Z,116.90
2019-05-30T13:03:18.978Z,101.33
2019-05-30T13:06:03.431Z,122.82
2019-05-30T13:08:49.665Z,107.03
2019-05-30T13:11:32.157Z,112.20
2019-05-30T13:14:15.701Z,106.33
2019-05-30T13:16:55.979Z,103.40
2019-05-30T13:19:39.652Z,99.00
2019-05-30T13:22:26.997Z,93.17
2019-05-30T13:25:10.778Z,97.17
2019-05-30T13:27:51.382Z,117.75
2019-05-30T13:30:41.533Z,132.53
2019-05-30T13:33:24.391Z,121.97
2019-05-30T13:36:07.207Z,186.93
2019-05-30T13:38:47.411Z,232.57
2019-05-30T13:41:30.992Z,162.87
2019-05-30T13:44:15.311Z,120.93
2019-05-30T13:46:56.247Z,208.40
2019-05-30T13:49:36.988Z,213.97
2019-05-30T13:52:17.306Z,120.50
2019-05-30T13:55:05.395Z,112.57
2019-05-30T13:57:51.445Z,107.53
2019-05-30T14:00:36.785Z,92.47
2019-05-30T14:03:19.406Z,100.15
2019-05-30T14:06:03.274Z,101.03
2019-05-30T14:08:50.632Z,96.60
2019-05-30T14:11:33.038Z,105.80
2019-05-30T14:14:15.100Z,101.23
2019-05-30T14:16:58.802Z,93.33
2019-05-30T14:19:51.731Z,105.03
2019-05-30T14:22:34.297Z,100.13
2019-05-30T14:25:15.944Z,119.23
2019-05-30T14:28:00.022Z,108.70
2019-05-30T14:30:46.469Z,97.03
2019-05-30T14:33:28.939Z,116.57
2019-05-30T14:36:26.715Z,115.47
2019-05-30T14:39:11.195Z,108.97
2019-05-30T14:41:54.254Z,103.80
2019-05-30T14:44:37.205Z,115.70
2019-05-30T14:47:55.187Z,132.13
2019-05-30T14:50:41.834Z,109.33
2019-05-30T14:53:29.474Z,123.30
2019-05-30T14:56:13.479Z,116.73
2019-05-30T14:58:53.548Z,139.90
2019-05-30T15:01:38.210Z,128.10
2019-05-30T15:04:19.433Z,116.77
2019-05-30T15:07:05.221Z,119.33
2019-05-30T15:09:43.500Z,91.03
2019-05-30T15:12:31.037Z,119.73
2019-05-30T15:15:18.810Z,106.43
2019-05-30T15:17:59.741Z,110.03
2019-05-30T15:20:48.059Z,112.80
2019-05-30T15:23:29.652Z,110.10
2019-05-30T15:26:31.198Z,115.07
2019-05-30T15:29:14.147Z,117.47
2019-05-30T15:32:13.089Z,120.95
2019-05-30T15:34:52.361Z,101.17
2019-05-30T15:37:49.201Z,106.50
2019-05-30T15:40:29.431Z,111.00
2019-05-30T15:43:17.642Z,113.40
2019-05-30T15:46:09.739Z,115.37
2019-05-30T15:48:52.064Z,115.00
2019-05-30T15:51:38.714Z,105.10
2019-05-30T15:54:23.975Z,116.90
2019-05-30T15:57:06.906Z,102.57
2019-05-30T15:59:48.210Z,114.87
2019-05-30T16:02:30.460Z,116.20
2019-05-30T16:05:08.312Z,107.07
2019-05-30T16:07:54.475Z,93.73
2019-05-30T16:10:36.978Z,104.57
2019-05-30T16:13:21.557Z,105.40
2019-05-30T16:16:04.258Z,123.20
2019-05-30T16:18:48.026Z,118.70
2019-05-30T16:21:39.101Z,120.77
2019-05-30T16:24:24.460Z,123.10
2019-05-30T16:27:11.624Z,120.63
2019-05-30T16:29:51.097Z,102.07
2019-05-30T16:32:33.064Z,118.77
2019-05-30T16:35:20.099Z,112.70
2019-05-30T16:38:02.673Z,172.87
2019-05-30T16:40:44.366Z,353.63
2019-05-30T16:43:28.380Z,173.37
2019-05-30T16:46:14.234Z,114.40
2019-05-30T16:48:58.503Z,114.93
2019-05-30T16:51:41.657Z,92.83
2019-05-30T16:54:27.501Z,112.20
2019-05-30T16:57:08.600Z,111.83
2019-05-30T16:59:51.095Z,111.63
2019-05-30T17:02:32.428Z,114.33
2019-05-30T17:05:13.486Z,102.63
2019-05-30T17:07:58.157Z,114.17
2019-05-30T17:10:40.123Z,101.70
2019-05-30T17:13:25.794Z,128.17
2019-05-30T17:16:22.099Z,100.10
2019-05-30T17:19:08.727Z,112.83
2019-05-30T17:21:49.140Z,132.17
2019-05-30T17:24:32.671Z,132.97
2019-05-30T17:27:12.763Z,126.07
2019-05-30T17:29:55.556Z,112.57
2019-05-30T17:32:39.628Z,124.87
2019-05-30T17:35:24.180Z,108.60
2019-05-30T17:38:04.557Z,103.43
2019-05-30T17:40:49.827Z,120.93
2019-05-30T17:43:29.364Z,104.80
2019-05-30T17:46:09.780Z,107.87
2019-05-30T17:48:52.561Z,129.93
2019-05-30T17:51:36.171Z,105.80
2019-05-30T17:54:18.160Z,128.13
2019-05-30T17:57:03.993Z,126.37
2019-05-30T17:59:47.697Z,125.33
2019-05-30T18:02:28.898Z,141.95
2019-05-30T18:05:20.354Z,132.50
2019-05-30T18:08:05.536Z,129.50
2019-05-30T18:10:53.725Z,124.67
2019-05-30T18:13:31.215Z,142.00
2019-05-30T18:16:11.088Z,126.40
2019-05-30T18:18:54.432Z,138.90
2019-05-30T18:21:36.890Z,161.23
2019-05-30T18:24:17.577Z,141.67
2019-05-30T18:26:58.882Z,133.43
2019-05-30T18:29:42.459Z,152.97
2019-05-30T18:32:25.970Z,158.60
2019-05-30T18:35:10.173Z,145.57
2019-05-30T18:37:51.462Z,137.43
2019-05-30T18:40:38.799Z,147.37
2019-05-30T18:43:24.641Z,141.40
2019-05-30T18:46:05.507Z,138.90
2019-05-30T18:48:48.501Z,139.20
2019-05-30T18:51:30.350Z,142.50
2019-05-30T18:54:11.758Z,135.80
2019-05-30T18:56:54.965Z,117.37
2019-05-30T18:59:37.423Z,141.35
2019-05-30T19:02:19.986Z,127.13
2019-05-30T19:05:01.597Z,121.85
2019-05-30T19:07:46.043Z,113.63
2019-05-30T19:10:26.014Z,106.27
2019-05-30T19:13:06.554Z,136.00
2019-05-30T19:15:48.140Z,126.03
2019-05-30T19:18:30.128Z,123.17
2019-05-30T19:21:14.097Z,137.20
2019-05-30T19:23:56.551Z,135.00
2019-05-30T19:26:37.370Z,129.10
2019-05-30T19:29:17.368Z,124.30
2019-05-30T19:31:58.939Z,142.87
2019-05-30T19:34:39.855Z,132.90
2019-05-30T19:37:24.764Z,137.37
2019-05-30T19:40:07.161Z,123.73
2019-05-30T19:42:58.594Z,130.77
2019-05-30T19:45:39.674Z,134.87
2019-05-30T19:48:22.952Z,133.43
2019-05-30T19:51:06.959Z,118.47
2019-05-30T19:53:46.158Z,111.50
2019-05-30T19:56:29.414Z,129.30
2019-05-30T19:59:12.307Z,126.67
2019-05-30T20:01:56.879Z,146.98
2019-05-30T20:04:40.499Z,133.30
2019-05-30T20:07:22.606Z,130.73
2019-05-30T20:10:02.579Z,147.27
2019-05-30T20:12:45.054Z,150.63
2019-05-30T20:15:24.579Z,154.33
2019-05-30T20:18:08.001Z,142.37
2019-05-30T20:20:57.211Z,124.27
2019-05-30T20:23:47.319Z,114.73
2019-05-30T20:26:17.928Z,107.90
2019-05-30T20:29:00.381Z,121.93
2019-05-30T20:31:43.623Z,136.63
2019-05-30T20:34:24.520Z,113.83
2019-05-30T20:37:08.864Z,127.27
2019-05-30T20:39:51.992Z,125.83
2019-05-30T20:42:39.192Z,130.30
2019-05-30T20:45:21.330Z,124.50
2019-05-30T20:48:04.758Z,123.83
2019-05-30T20:50:44.704Z,127.80
2019-05-30T20:53:26.272Z,136.33
2019-05-30T20:56:07.104Z,125.80
2019-05-30T20:58:48.294Z,124.93
2019-05-30T21:01:30.639Z,146.07
2019-05-30T21:04:13.622Z,128.90
2019-05-30T21:06:57.724Z,132.43
2019-05-30T21:09:37.984Z,134.73
2019-05-30T21:12:36.438Z,139.70
2019-05-30T21:15:04.615Z,146.10
2019-05-30T21:17:48.117Z,144.80
2019-05-30T21:20:28.683Z,130.67
2019-05-30T21:23:09.296Z,134.77
2019-05-30T21:25:51.651Z,151.87
2019-05-30T21:28:31.096Z,130.60
2019-05-30T21:31:14.770Z,156.07
2019-05-30T21:33:58.882Z,138.43
2019-05-30T21:36:39.834Z,145.23
2019-05-30T21:39:21.513Z,127.77
2019-05-30T21:42:04.220Z,130.97
2019-05-30T21:44:44.785Z,142.97
2019-05-30T21:47:29.266Z,138.47
2019-05-30T21:50:11.532Z,135.17
2019-05-30T21:52:54.984Z,142.90
2019-05-30T21:55:38.050Z,134.13
2019-05-30T21:58:18.012Z,143.30
2019-05-30T22:01:34.272Z,125.27
2019-05-30T22:04:15.668Z,136.23
2019-05-30T22:07:02.612Z,136.07
2019-05-30T22:09:45.449Z,129.30
2019-05-30T22:12:29.394Z,144.80
2019-05-30T22:15:09.827Z,142.37
2019-05-30T22:17:52.003Z,144.17
2019-05-30T22:20:36.190Z,146.62
2019-05-30T22:23:18.352Z,133.47
2019-05-30T22:25:57.920Z,128.03
2019-05-30T22:28:42.279Z,137.23
2019-05-30T22:31:23.695Z,137.93
2019-05-30T22:34:06.379Z,126.67
2019-05-30T22:36:46.752Z,125.47
2019-05-30T22:39:27.143Z,128.40
2019-05-30T22:42:09.933Z,127.90
2019-05-30T22:44:52.278Z,127.17
2019-05-30T22:47:34.856Z,128.53
2019-05-30T22:50:16.869Z,141.87
2019-05-30T22:52:58.713Z,139.90
2019-05-30T22:55:37.131Z,119.67
2019-05-30T22:58:16.407Z,118.33
2019-05-30T23:01:00.106Z,128.57
2019-05-30T23:03:41.763Z,127.63
2019-05-30T23:06:25.373Z,126.60
2019-05-30T23:09:08.614Z,114.63
2019-05-30T23:11:49.667Z,113.80
2019-05-30T23:14:34.892Z,114.43
2019-05-30T23:17:17.878Z,123.67
2019-05-30T23:20:02.149Z,108.80
2019-05-30T23:22:42.893Z,297.40
2019-05-30T23:25:22.934Z,199.38
2019-05-30T23:28:02.551Z,139.00
2019-05-30T23:30:45.161Z,117.70
2019-05-30T23:33:30.868Z,112.50
2019-05-30T23:36:10.117Z,117.87
2019-05-30T23:38:51.057Z,111.70
2019-05-30T23:41:32.173Z,117.67
2019-05-30T23:44:17.035Z,113.37
2019-05-30T23:46:57.674Z,108.83
2019-05-30T23:49:40.098Z,101.80
2019-05-30T23:52:22.771Z,120.08
2019-05-30T23:55:05.553Z,99.93
2019-05-30T23:57:48.254Z,106.57
